Time;durP1;ratioP1;P1;durP2;ratioP2;P2;SDS_P1;SDS_P2;PMS_P1;PMS_P2;Temp;Humidity;BMP_temperature;BMP_pressure;BME280_temperature;BME280_humidity;BME280_pressure;Samples;Min_cycle;Max_cycle;Signal;HPM_P1;HPM_P2
2023/09/16 00:01:20;;;;;;;27.67;18.13;;;22.70;92.50;;;;;;5032018;28;20048;-66
2023/09/16 00:04:24;;;;;;;32.42;19.05;;;22.70;92.70;;;;;;5031723;28;20048;-66
2023/09/16 00:07:27;;;;;;;35.78;18.80;;;22.70;92.60;;;;;;5031885;28;20041;-66
2023/09/16 00:10:34;;;;;;;33.13;19.83;;;22.80;92.70;;;;;;5031846;28;20504;-64
2023/09/16 00:13:38;;;;;;;30.67;18.58;;;22.70;93.20;;;;;;5031487;28;20053;-64
2023/09/16 00:16:42;;;;;;;31.85;19.00;;;22.70;92.70;;;;;;5031597;28;20048;-64
2023/09/16 00:19:46;;;;;;;39.90;19.95;;;22.70;92.60;;;;;;5031812;28;20041;-66
2023/09/16 00:22:51;;;;;;;30.08;19.65;;;22.60;92.50;;;;;;5031333;28;20041;-64
2023/09/16 00:25:55;;;;;;;26.27;18.95;;;22.60;92.60;;;;;;5031433;28;20048;-65
2023/09/16 00:28:59;;;;;;;36.65;20.58;;;22.60;92.70;;;;;;5031392;28;20049;-64
2023/09/16 00:32:06;;;;;;;34.78;20.30;;;22.60;92.70;;;;;;5031530;28;20509;-65
2023/09/16 00:35:11;;;;;;;35.60;20.15;;;22.60;92.30;;;;;;5031105;28;20056;-65
2023/09/16 00:38:16;;;;;;;31.15;19.45;;;22.60;92.50;;;;;;5031478;28;20049;-66
2023/09/16 00:41:21;;;;;;;29.60;19.00;;;22.50;92.20;;;;;;5030457;28;20052;-65
2023/09/16 00:44:25;;;;;;;31.00;18.98;;;22.50;92.40;;;;;;5031199;28;20056;-65
2023/09/16 00:47:29;;;;;;;30.90;19.08;;;23.60;92.70;;;;;;5053154;28;20068;-65
2023/09/16 00:50:33;;;;;;;30.15;19.77;;;22.40;92.30;;;;;;5031214;28;20508;-64
2023/09/16 00:53:37;;;;;;;30.75;19.45;;;22.40;92.70;;;;;;5030809;28;20044;-65
2023/09/16 00:56:42;;;;;;;41.83;28.33;;;22.30;92.60;;;;;;5031033;28;20052;-65
2023/09/16 00:59:47;;;;;;;33.95;23.05;;;22.30;92.90;;;;;;5031231;28;20397;-65
2023/09/16 01:02:50;;;;;;;32.58;22.75;;;22.20;93.20;;;;;;5031099;28;20049;-65
2023/09/16 01:05:55;;;;;;;36.88;22.80;;;22.10;93.10;;;;;;5030947;28;20064;-65
2023/09/16 01:08:59;;;;;;;32.25;20.38;;;22.20;93.30;;;;;;5031211;28;20500;-66
2023/09/16 01:12:03;;;;;;;31.05;20.30;;;22.20;93.30;;;;;;5030078;28;20045;-66
2023/09/16 01:15:10;;;;;;;32.83;19.05;;;22.10;93.50;;;;;;5029908;28;20061;-64
2023/09/16 01:18:24;;;;;;;29.83;19.20;;;22.10;93.30;;;;;;5030271;28;20040;-64
2023/09/16 01:21:29;;;;;;;26.70;18.65;;;22.10;93.40;;;;;;5030598;28;20072;-65
2023/09/16 01:24:33;;;;;;;32.40;20.17;;;21.90;93.80;;;;;;5030915;28;20048;-65
2023/09/16 01:27:37;;;;;;;39.72;20.50;;;22.00;93.70;;;;;;5029809;28;20489;-65
2023/09/16 01:30:47;;;;;;;31.63;20.25;;;22.00;93.70;;;;;;5029955;28;20040;-67
2023/09/16 01:33:53;;;;;;;24.67;18.10;;;21.80;93.90;;;;;;5030612;28;20065;-65
2023/09/16 01:36:58;;;;;;;33.28;20.17;;;22.00;94.10;;;;;;5030823;28;20056;-65
2023/09/16 01:40:12;;;;;;;31.77;18.77;;;22.10;93.80;;;;;;5029674;28;20040;-66
2023/09/16 01:43:18;;;;;;;30.58;19.63;;;22.10;93.70;;;;;;5029758;28;20049;-66
2023/09/16 01:46:23;;;;;;;28.25;18.08;;;22.10;93.70;;;;;;5029915;28;20057;-66
2023/09/16 01:49:27;;;;;;;25.38;18.52;;;22.00;93.70;;;;;;5030702;28;20624;-67
2023/09/16 01:52:32;;;;;;;26.08;18.45;;;22.00;94.10;;;;;;5030242;28;20044;-66
2023/09/16 01:55:35;;;;;;;25.52;18.35;;;21.90;94.10;;;;;;5029890;28;20072;-66
2023/09/16 01:58:39;;;;;;;29.75;18.23;;;21.70;94.40;;;;;;5029318;28;20048;-66
2023/09/16 02:01:45;;;;;;;27.80;17.80;;;21.70;94.40;;;;;;5033029;28;20046;-66
2023/09/16 02:04:49;;;;;;;26.10;17.45;;;21.80;94.40;;;;;;5034351;28;20045;-66
2023/09/16 02:07:53;;;;;;;28.05;17.95;;;21.90;94.20;;;;;;5033282;28;20041;-66
2023/09/16 02:10:57;;;;;;;25.63;18.38;;;21.90;94.20;;;;;;5034324;28;20053;-65
2023/09/16 02:14:02;;;;;;;24.33;17.90;;;21.90;94.00;;;;;;5033393;28;20049;-66
2023/09/16 02:17:07;;;;;;;29.20;17.58;;;21.80;94.10;;;;;;5033215;28;20048;-65
2023/09/16 02:20:12;;;;;;;24.92;17.35;;;21.70;94.20;;;;;;5034586;28;20048;-66
2023/09/16 02:23:16;;;;;;;22.02;16.30;;;21.40;93.90;;;;;;5033151;28;20061;-66
2023/09/16 02:26:21;;;;;;;25.08;15.77;;;21.70;94.00;;;;;;5032949;28;20060;-66
2023/09/16 02:29:25;;;;;;;24.73;15.13;;;21.70;93.90;;;;;;5032970;28;20040;-66
2023/09/16 02:32:30;;;;;;;24.13;15.77;;;21.70;93.80;;;;;;5032852;28;20401;-66
2023/09/16 02:35:34;;;;;;;24.40;16.08;;;21.70;93.90;;;;;;5033936;28;20065;-66
2023/09/16 02:38:38;;;;;;;19.00;13.73;;;21.70;93.80;;;;;;5056246;28;20504;-66
2023/09/16 02:41:41;;;;;;;23.55;14.68;;;21.70;93.60;;;;;;5034671;28;20052;-66
2023/09/16 02:44:45;;;;;;;23.75;15.25;;;21.60;93.60;;;;;;5033433;28;20128;-66
2023/09/16 02:47:50;;;;;;;19.67;14.25;;;21.70;93.70;;;;;;5033490;28;20052;-66
2023/09/16 02:50:53;;;;;;;22.08;14.20;;;21.70;93.60;;;;;;5033081;28;20054;-66
2023/09/16 02:53:57;;;;;;;20.92;14.65;;;21.50;93.40;;;;;;5032882;28;20048;-66
2023/09/16 02:57:02;;;;;;;20.75;13.80;;;21.50;93.80;;;;;;5055751;28;20067;-66
2023/09/16 03:00:10;;;;;;;17.27;13.95;;;21.40;94.10;;;;;;5032317;28;20052;-66
2023/09/16 03:03:14;;;;;;;22.13;14.40;;;21.50;94.00;;;;;;5032061;28;20049;-66
2023/09/16 03:06:19;;;;;;;23.27;14.07;;;21.50;93.80;;;;;;5033125;28;20052;-66
2023/09/16 03:09:24;;;;;;;23.77;14.30;;;21.40;94.00;;;;;;5032104;28;20056;-64
2023/09/16 03:12:27;;;;;;;30.75;14.38;;;21.30;94.10;;;;;;5031840;28;20041;-65
2023/09/16 03:15:31;;;;;;;21.55;14.35;;;21.50;94.20;;;;;;5032804;28;20053;-65
2023/09/16 03:18:35;;;;;;;25.75;15.23;;;21.40;94.00;;;;;;5032221;28;20044;-65
2023/09/16 03:21:39;;;;;;;20.33;14.25;;;21.40;93.90;;;;;;5032597;28;20048;-66
2023/09/16 03:24:44;;;;;;;19.33;14.75;;;21.40;94.00;;;;;;5031725;28;20064;-66
2023/09/16 03:27:47;;;;;;;26.55;15.13;;;21.40;93.90;;;;;;5032665;28;20662;-66
2023/09/16 03:30:51;;;;;;;29.52;16.95;;;21.40;93.70;;;;;;5031502;28;20129;-66
2023/09/16 03:33:55;;;;;;;24.98;15.07;;;21.40;93.70;;;;;;5032207;28;20068;-66
2023/09/16 03:37:00;;;;;;;23.65;15.20;;;21.40;93.80;;;;;;5031594;28;20052;-65
2023/09/16 03:40:06;;;;;;;25.92;14.02;;;21.40;93.80;;;;;;5054489;28;20516;-65
2023/09/16 03:43:13;;;;;;;29.95;14.15;;;21.40;93.70;;;;;;5031612;28;20048;-65
2023/09/16 03:46:17;;;;;;;29.52;17.40;;;21.20;93.70;;;;;;5032375;28;20060;-66
2023/09/16 03:49:21;;;;;;;22.23;15.95;;;21.30;93.90;;;;;;5031502;28;20057;-66
2023/09/16 03:52:25;;;;;;;26.23;15.50;;;21.10;93.60;;;;;;5032363;28;20068;-65
2023/09/16 03:55:29;;;;;;;23.63;15.15;;;21.10;93.90;;;;;;5031168;28;20531;-66
2023/09/16 03:58:33;;;;;;;22.25;15.52;;;21.10;94.00;;;;;;5031514;28;20508;-67
2023/09/16 04:01:40;;;;;;;22.08;15.55;;;21.10;94.30;;;;;;5031803;28;20048;-66
2023/09/16 04:04:44;;;;;;;27.80;15.38;;;21.10;94.00;;;;;;5031279;28;20049;-66
2023/09/16 04:07:48;;;;;;;29.55;16.30;;;21.10;94.40;;;;;;5031626;28;20048;-66
2023/09/16 04:10:52;;;;;;;33.47;16.42;;;21.00;94.20;;;;;;5053855;28;20044;-66
2023/09/16 04:13:56;;;;;;;29.63;16.25;;;21.00;94.50;;;;;;5031543;28;20044;-66
2023/09/16 04:16:59;;;;;;;26.48;15.98;;;21.00;94.50;;;;;;5030982;28;20048;-66
2023/09/16 04:20:05;;;;;;;24.08;16.30;;;21.00;94.70;;;;;;5031759;28;20052;-66
2023/09/16 04:23:09;;;;;;;27.33;15.73;;;20.90;94.50;;;;;;5031232;28;20132;-66
2023/09/16 04:26:14;;;;;;;21.80;15.77;;;20.90;94.30;;;;;;5031652;28;20061;-66
2023/09/16 04:29:19;;;;;;;24.05;15.50;;;20.90;94.60;;;;;;5030855;28;20124;-66
2023/09/16 04:32:24;;;;;;;21.45;15.25;;;20.70;94.80;;;;;;5030285;28;20052;-66
2023/09/16 04:35:28;;;;;;;22.67;15.50;;;20.80;94.90;;;;;;5030533;28;20437;-66
2023/09/16 04:38:32;;;;;;;23.85;14.50;;;20.70;95.00;;;;;;5031450;28;20053;-66
2023/09/16 04:41:40;;;;;;;20.63;14.25;;;20.80;94.70;;;;;;5030157;28;20044;-66
2023/09/16 04:44:44;;;;;;;27.08;15.45;;;20.90;94.40;;;;;;5030502;28;20060;-66
2023/09/16 04:47:48;;;;;;;26.25;16.15;;;20.70;94.60;;;;;;5030372;28;20058;-66
2023/09/16 04:50:52;;;;;;;21.08;15.75;;;20.80;94.60;;;;;;5030296;28;20049;-66
2023/09/16 04:53:56;;;;;;;30.30;16.25;;;20.90;94.60;;;;;;5053400;28;20044;-66
2023/09/16 04:57:02;;;;;;;31.98;15.68;;;21.00;94.30;;;;;;5029812;28;20049;-66
2023/09/16 05:00:07;;;;;;;23.73;14.65;;;21.10;94.20;;;;;;5030020;28;20045;-66
2023/09/16 05:03:11;;;;;;;29.77;15.50;;;21.10;94.00;;;;;;5030002;28;20049;-65
2023/09/16 05:06:15;;;;;;;31.02;14.82;;;21.10;94.00;;;;;;5030028;28;20037;-65
2023/09/16 05:09:22;;;;;;;30.38;15.80;;;21.10;94.00;;;;;;5030259;28;20441;-65
2023/09/16 05:12:29;;;;;;;25.08;14.82;;;21.10;94.10;;;;;;5030175;28;20048;-65
2023/09/16 05:15:33;;;;;;;29.40;14.80;;;21.30;94.00;;;;;;5030721;28;20056;-66
2023/09/16 05:18:37;;;;;;;30.50;15.68;;;21.60;93.60;;;;;;5029958;28;20036;-66
2023/09/16 05:21:42;;;;;;;21.30;14.10;;;21.70;93.40;;;;;;5029963;28;20048;-66
2023/09/16 05:24:46;;;;;;;24.63;16.67;;;22.10;93.40;;;;;;5029921;28;20064;-66
2023/09/16 05:27:51;;;;;;;26.55;15.15;;;22.80;91.90;;;;;;5030043;28;20048;-66
2023/09/16 05:30:56;;;;;;;26.73;14.88;;;23.20;91.50;;;;;;5029338;28;20040;-66
2023/09/16 05:34:01;;;;;;;21.35;15.75;;;23.90;90.50;;;;;;5029433;28;20058;-66
2023/09/16 05:37:05;;;;;;;22.95;14.60;;;24.50;89.20;;;;;;5033481;28;20060;-66
2023/09/16 05:40:10;;;;;;;19.20;13.88;;;25.30;87.90;;;;;;5034439;28;20048;-66
2023/09/16 05:43:13;;;;;;;22.80;13.73;;;26.10;84.40;;;;;;5033844;28;20056;-66
2023/09/16 05:46:18;;;;;;;29.60;14.85;;;26.10;84.50;;;;;;5033770;28;20044;-66
2023/09/16 05:49:23;;;;;;;26.50;13.05;;;25.90;84.40;;;;;;5033722;28;20052;-66
2023/09/16 05:52:28;;;;;;;21.33;13.45;;;25.90;83.80;;;;;;5033408;28;20048;-66
2023/09/16 05:55:36;;;;;;;24.85;13.80;;;25.90;84.10;;;;;;5033338;28;20084;-66
2023/09/16 05:58:43;;;;;;;23.13;13.80;;;26.60;82.80;;;;;;5033440;28;20048;-66
2023/09/16 06:01:47;;;;;;;24.67;14.20;;;26.50;81.60;;;;;;5032916;28;20665;-66
2023/09/16 06:04:52;;;;;;;27.08;14.88;;;26.60;81.90;;;;;;5055872;28;20543;-66
2023/09/16 06:07:56;;;;;;;30.35;15.02;;;26.50;82.10;;;;;;5033119;28;20041;-66
2023/09/16 06:11:00;;;;;;;33.97;16.42;;;26.50;82.60;;;;;;5033925;28;20405;-66
2023/09/16 06:14:05;;;;;;;22.23;14.48;;;26.60;83.00;;;;;;5033082;28;20048;-66
2023/09/16 06:17:10;;;;;;;28.92;16.15;;;26.70;82.80;;;;;;5033432;28;20162;-67
2023/09/16 06:20:14;;;;;;;28.40;15.95;;;26.60;82.60;;;;;;5032770;28;20393;-67
2023/09/16 06:23:18;;;;;;;33.42;15.35;;;26.40;83.70;;;;;;5055551;28;20068;-68
2023/09/16 06:26:24;;;;;;;28.20;15.40;;;26.40;84.00;;;;;;5032817;28;20048;-66
2023/09/16 06:29:28;;;;;;;25.80;15.73;;;26.50;83.10;;;;;;5033976;28;20382;-66
2023/09/16 06:32:32;;;;;;;29.10;16.55;;;26.60;83.40;;;;;;5032532;28;20044;-66
2023/09/16 06:35:36;;;;;;;25.00;16.73;;;26.60;83.80;;;;;;5032317;28;20051;-65
2023/09/16 06:38:42;;;;;;;27.77;15.30;;;26.70;83.70;;;;;;5032630;28;20132;-66
2023/09/16 06:41:49;;;;;;;30.27;15.13;;;26.90;83.10;;;;;;5055418;28;20044;-68
2023/09/16 06:44:54;;;;;;;27.65;16.20;;;27.00;83.50;;;;;;5032487;28;20049;-70
2023/09/16 06:47:58;;;;;;;32.33;16.48;;;27.30;83.10;;;;;;5032503;28;20041;-69
2023/09/16 06:51:02;;;;;;;27.13;15.45;;;27.30;82.70;;;;;;5033338;28;20049;-69
2023/09/16 06:54:06;;;;;;;31.42;16.38;;;27.40;83.30;;;;;;5032827;28;20493;-69
2023/09/16 06:57:10;;;;;;;31.23;16.88;;;27.60;82.60;;;;;;5032876;28;20065;-68
2023/09/16 07:00:15;;;;;;;20.92;15.10;;;27.70;82.50;;;;;;5032907;28;20397;-70
2023/09/16 07:03:19;;;;;;;36.88;17.67;;;27.80;82.40;;;;;;5033201;28;20701;-67
2023/09/16 07:06:23;;;;;;;37.22;16.08;;;28.00;81.90;;;;;;5032797;28;20650;-68
2023/09/16 07:09:27;;;;;;;27.75;15.75;;;27.90;82.10;;;;;;5032191;28;20056;-67
2023/09/16 07:12:31;;;;;;;28.90;15.13;;;27.80;82.40;;;;;;5032907;28;20044;-67
2023/09/16 07:15:35;;;;;;;36.75;15.48;;;27.70;83.10;;;;;;5032635;28;20056;-67
2023/09/16 07:18:39;;;;;;;31.55;14.95;;;27.70;83.40;;;;;;5032740;28;20397;-66
2023/09/16 07:21:44;;;;;;;26.30;14.32;;;27.90;83.30;;;;;;5032640;28;20401;-67
2023/09/16 07:24:47;;;;;;;33.75;16.08;;;27.80;83.60;;;;;;5032416;28;20037;-67
2023/09/16 07:27:51;;;;;;;27.05;15.68;;;27.90;83.30;;;;;;5032348;28;20053;-66
2023/09/16 07:30:56;;;;;;;27.40;13.57;;;27.70;83.90;;;;;;5032287;28;20044;-65
2023/09/16 07:34:01;;;;;;;23.92;11.85;;;27.80;84.20;;;;;;5031692;28;20068;-65
2023/09/16 07:37:04;;;;;;;25.77;14.15;;;28.10;83.80;;;;;;5031276;28;20064;-65
2023/09/16 07:40:09;;;;;;;19.27;12.65;;;28.40;82.40;;;;;;5032266;28;20048;-65
2023/09/16 07:43:12;;;;;;;15.48;10.68;;;28.50;82.00;;;;;;5032194;28;20053;-65
2023/09/16 07:46:16;;;;;;;19.77;10.23;;;28.60;81.50;;;;;;5031966;28;20045;-68
2023/09/16 07:49:20;;;;;;;19.50;12.80;;;28.80;79.90;;;;;;5031977;28;20044;-68
2023/09/16 07:52:24;;;;;;;54.65;13.88;;;28.90;80.40;;;;;;5031939;28;20052;-67
2023/09/16 07:55:28;;;;;;;19.13;10.95;;;29.00;79.70;;;;;;5031255;28;20417;-68
2023/09/16 07:58:32;;;;;;;18.33;10.23;;;29.20;79.50;;;;;;5031105;28;20052;-67
2023/09/16 08:01:36;;;;;;;20.83;11.60;;;29.10;78.70;;;;;;5031502;28;20044;-66
2023/09/16 08:04:39;;;;;;;18.65;10.00;;;28.70;78.30;;;;;;5031853;28;20076;-67
2023/09/16 08:07:43;;;;;;;12.95;8.77;;;28.70;78.80;;;;;;5031822;28;20044;-66
2023/09/16 08:10:51;;;;;;;13.30;8.88;;;28.80;77.80;;;;;;5031609;28;20061;-66
2023/09/16 08:13:58;;;;;;;18.00;9.48;;;29.00;78.20;;;;;;5031738;28;20048;-67
2023/09/16 08:17:03;;;;;;;16.33;9.32;;;29.20;78.10;;;;;;5031324;28;20056;-63
2023/09/16 08:20:08;;;;;;;11.07;7.72;;;29.20;77.80;;;;;;5030919;28;20048;-64
2023/09/16 08:23:13;;;;;;;11.57;8.43;;;29.30;76.70;;;;;;5031154;28;20516;-66
2023/09/16 08:26:18;;;;;;;10.02;7.65;;;29.30;76.10;;;;;;5029736;28;20048;-66
2023/09/16 08:29:21;;;;;;;15.90;8.32;;;29.40;76.10;;;;;;5030723;28;20056;-66
2023/09/16 08:32:28;;;;;;;15.98;8.20;;;29.50;75.90;;;;;;5031546;28;20121;-66
2023/09/16 08:35:32;;;;;;;16.58;6.93;;;29.40;74.30;;;;;;5030225;28;20057;-66
2023/09/16 08:38:36;;;;;;;16.88;7.03;;;29.30;74.70;;;;;;5031429;28;20507;-66
2023/09/16 08:41:56;;;;;;;13.05;6.85;;;29.50;75.10;;;;;;5031403;28;20048;-67
2023/09/16 08:45:04;;;;;;;15.73;7.72;;;29.70;74.70;;;;;;5031066;28;20053;-67
2023/09/16 08:48:20;;;;;;;13.55;6.72;;;29.80;74.20;;;;;;5031108;28;20069;-67
2023/09/16 08:51:31;;;;;;;16.17;6.95;;;29.90;74.30;;;;;;5030754;28;20048;-67
2023/09/16 08:54:37;;;;;;;16.70;6.68;;;29.90;74.10;;;;;;5030976;28;20048;-67
2023/09/16 08:57:45;;;;;;;9.93;6.22;;;29.70;72.20;;;;;;5030905;28;20052;-67
2023/09/16 09:00:49;;;;;;;15.98;6.70;;;29.70;73.20;;;;;;5030602;28;20068;-67
2023/09/16 09:03:54;;;;;;;12.93;6.53;;;29.70;73.00;;;;;;5030996;28;20052;-67
2023/09/16 09:07:00;;;;;;;11.55;6.18;;;29.60;71.70;;;;;;5030948;28;20040;-67
2023/09/16 09:10:07;;;;;;;9.63;6.07;;;29.60;73.00;;;;;;5030719;28;20048;-67
2023/09/16 09:13:12;;;;;;;9.30;7.13;;;29.60;73.40;;;;;;5030524;28;20040;-67
2023/09/16 09:16:19;;;;;;;9.95;6.80;;;29.60;73.90;;;;;;5030897;28;20052;-67
2023/09/16 09:19:22;;;;;;;12.77;6.95;;;29.70;74.50;;;;;;5030694;28;20049;-66
2023/09/16 09:22:26;;;;;;;15.65;7.47;;;29.80;74.40;;;;;;5030711;28;20060;-66
2023/09/16 09:25:32;;;;;;;13.45;7.85;;;29.80;74.00;;;;;;5031608;28;20400;-66
2023/09/16 09:28:35;;;;;;;18.20;12.13;;;29.80;74.60;;;;;;5030727;28;20044;-66
2023/09/16 09:31:40;;;;;;;21.33;10.38;;;29.80;74.50;;;;;;5030473;28;20056;-66
2023/09/16 09:34:44;;;;;;;13.75;8.23;;;29.90;74.10;;;;;;5030270;28;20072;-66
2023/09/16 09:37:49;;;;;;;11.57;6.93;;;29.90;73.60;;;;;;5030348;28;20052;-66
2023/09/16 09:41:01;;;;;;;9.95;6.30;;;29.90;72.90;;;;;;5030608;28;20444;-66
2023/09/16 09:44:05;;;;;;;6.50;5.68;;;29.90;71.10;;;;;;5030385;28;20044;-66
2023/09/16 09:47:12;;;;;;;8.77;5.93;;;29.90;71.50;;;;;;5029572;28;20045;-65
2023/09/16 09:50:18;;;;;;;11.23;6.07;;;30.00;71.70;;;;;;5030470;28;20132;-65
2023/09/16 09:53:23;;;;;;;10.43;6.43;;;30.10;71.30;;;;;;5030391;28;20406;-65
2023/09/16 09:56:27;;;;;;;11.82;6.00;;;30.40;71.20;;;;;;5030240;28;20052;-65
2023/09/16 09:59:32;;;;;;;9.40;6.07;;;30.60;71.10;;;;;;5030285;28;20048;-66
2023/09/16 10:02:40;;;;;;;13.20;6.38;;;30.70;70.70;;;;;;5029625;28;20049;-66
2023/09/16 10:05:45;;;;;;;8.15;5.70;;;30.70;70.50;;;;;;5030333;28;20048;-66
2023/09/16 10:08:48;;;;;;;12.25;6.00;;;30.60;70.70;;;;;;5030131;28;20049;-66
2023/09/16 10:11:52;;;;;;;8.27;6.15;;;30.50;71.30;;;;;;5029997;28;20049;-66
2023/09/16 10:14:57;;;;;;;13.10;5.90;;;30.30;70.70;;;;;;5030080;28;20060;-66
2023/09/16 10:18:02;;;;;;;9.40;5.63;;;30.30;70.90;;;;;;5030071;28;20052;-66
2023/09/16 10:21:07;;;;;;;10.25;6.15;;;30.30;71.20;;;;;;5031757;28;20044;-66
2023/09/16 10:24:12;;;;;;;21.73;7.30;;;30.30;71.00;;;;;;5033119;28;20068;-66
2023/09/16 10:27:22;;;;;;;11.73;6.50;;;30.20;70.60;;;;;;5033920;28;20389;-66
2023/09/16 10:30:27;;;;;;;;;;;30.20;70.90;;;;;;5033967;28;20064;-66
2023/09/16 10:33:31;;;;;;;11.90;6.50;;;30.30;71.40;;;;;;5033199;28;19917;-66
2023/09/16 10:36:36;;;;;;;11.93;6.00;;;30.30;71.50;;;;;;5033530;28;20052;-66
2023/09/16 10:39:43;;;;;;;21.55;5.78;;;30.20;70.90;;;;;;5033391;28;20048;-66
2023/09/16 10:42:50;;;;;;;10.40;5.95;;;30.20;69.60;;;;;;5033006;28;20041;-66
2023/09/16 10:45:54;;;;;;;12.23;5.50;;;30.20;68.40;;;;;;5033384;28;20052;-66
2023/09/16 10:48:58;;;;;;;10.32;5.78;;;30.30;67.90;;;;;;5033271;28;20052;-65
2023/09/16 10:52:04;;;;;;;15.00;5.60;;;30.40;68.00;;;;;;5033087;28;20397;-65
2023/09/16 10:55:17;;;;;;;8.75;5.28;;;30.40;68.20;;;;;;5032150;28;20048;-66
2023/09/16 10:58:41;;;;;;;22.10;6.78;;;30.40;68.40;;;;;;5033135;28;20060;-66
2023/09/16 11:01:56;;;;;;;9.95;5.93;;;30.30;69.10;;;;;;5032593;28;20044;-66
2023/09/16 11:05:00;;;;;;;13.07;6.20;;;30.40;69.30;;;;;;5033115;28;20527;-66
2023/09/16 11:08:05;;;;;;;9.50;5.63;;;30.40;69.20;;;;;;5032910;28;20040;-66
2023/09/16 11:11:10;;;;;;;11.20;5.47;;;30.40;69.60;;;;;;5032968;28;20056;-67
2023/09/16 11:14:15;;;;;;;11.93;5.75;;;30.30;69.60;;;;;;5033091;28;20052;-66
2023/09/16 11:17:22;;;;;;;11.65;5.55;;;30.20;70.10;;;;;;5032755;28;20171;-66
2023/09/16 11:20:31;;;;;;;13.02;5.78;;;30.10;70.20;;;;;;5032844;28;20398;-66
2023/09/16 11:23:38;;;;;;;15.35;6.53;;;30.00;69.90;;;;;;5032693;28;20508;-66
2023/09/16 11:26:47;;;;;;;14.82;6.38;;;29.90;70.90;;;;;;5032551;28;20056;-66
2023/09/16 11:29:52;;;;;;;15.27;6.50;;;29.80;71.50;;;;;;5032308;28;20051;-66
2023/09/16 11:32:56;;;;;;;17.75;6.45;;;29.70;72.00;;;;;;5031477;28;20037;-66
2023/09/16 11:36:15;;;;;;;13.48;6.65;;;29.60;72.50;;;;;;5032271;28;20064;-66
2023/09/16 11:39:46;;;;;;;9.25;5.93;;;29.50;73.50;;;;;;5032640;28;20056;-67
2023/09/16 11:42:50;;;;;;;10.55;5.75;;;29.40;73.90;;;;;;5032144;28;20095;-66
2023/09/16 11:45:54;;;;;;;12.00;6.32;;;29.30;74.10;;;;;;5032319;28;20060;-66
2023/09/16 11:49:06;;;;;;;8.20;6.30;;;29.30;73.60;;;;;;5031578;28;20045;-66
2023/09/16 11:52:10;;;;;;;14.82;7.07;;;29.30;73.40;;;;;;5032125;28;20612;-66
2023/09/16 11:55:14;;;;;;;14.05;7.30;;;29.30;73.70;;;;;;5032060;28;20044;-66
2023/09/16 11:58:18;;;;;;;12.43;5.85;;;29.20;73.70;;;;;;5031930;28;20052;-66
2023/09/16 12:01:31;;;;;;;14.07;6.85;;;29.20;74.20;;;;;;5031786;28;20041;-66
2023/09/16 12:04:36;;;;;;;23.08;7.32;;;29.20;76.10;;;;;;5031792;28;20044;-66
2023/09/16 12:07:41;;;;;;;14.88;7.10;;;29.20;78.00;;;;;;5032079;28;20401;-66
2023/09/16 12:10:46;;;;;;;9.00;7.00;;;29.00;77.40;;;;;;5031784;28;20056;-66
2023/09/16 12:13:50;;;;;;;13.60;7.00;;;28.90;77.50;;;;;;5031668;28;20108;-66
2023/09/16 12:16:54;;;;;;;20.08;7.10;;;28.80;77.20;;;;;;5031770;28;20049;-66
2023/09/16 12:19:58;;;;;;;18.05;7.40;;;28.70;77.00;;;;;;5031431;28;20056;-66
2023/09/16 12:23:01;;;;;;;14.57;7.40;;;28.60;77.80;;;;;;5031421;28;20061;-66
2023/09/16 12:26:08;;;;;;;19.55;7.35;;;28.50;78.40;;;;;;5031746;28;20053;-66
2023/09/16 12:29:12;;;;;;;11.15;7.22;;;28.40;78.50;;;;;;5031442;28;20048;-65
2023/09/16 12:32:17;;;;;;;10.77;6.85;;;28.40;78.10;;;;;;5030594;28;20044;-65
2023/09/16 12:35:21;;;;;;;9.25;6.57;;;28.40;77.40;;;;;;5031152;28;20512;-65
2023/09/16 12:38:26;;;;;;;16.45;7.20;;;28.40;76.90;;;;;;5031207;28;20057;-65
2023/09/16 12:41:30;;;;;;;15.43;6.90;;;28.40;76.30;;;;;;5031053;28;20500;-65
2023/09/16 12:44:36;;;;;;;16.55;7.30;;;28.40;76.20;;;;;;5031099;28;20140;-65
2023/09/16 12:47:41;;;;;;;10.73;6.60;;;28.40;76.20;;;;;;5031256;28;20068;-65
2023/09/16 12:50:45;;;;;;;9.07;6.20;;;28.40;75.80;;;;;;5031186;28;20048;-65
2023/09/16 12:53:53;;;;;;;10.88;6.50;;;28.50;75.70;;;;;;5030903;28;20654;-65
2023/09/16 12:57:02;;;;;;;9.63;6.00;;;28.50;75.70;;;;;;5030988;28;20064;-65
2023/09/16 13:00:09;;;;;;;12.30;7.15;;;28.50;75.80;;;;;;5031023;28;20040;-65
2023/09/16 13:03:15;;;;;;;9.18;6.28;;;28.60;76.20;;;;;;5030862;28;20064;-65
2023/09/16 13:06:19;;;;;;;11.57;7.07;;;28.70;76.30;;;;;;5031106;28;20052;-65
2023/09/16 13:09:24;;;;;;;11.30;5.97;;;28.80;75.80;;;;;;5030647;28;20044;-66
2023/09/16 13:12:30;;;;;;;12.85;7.38;;;28.90;75.90;;;;;;5030905;28;20508;-66
2023/09/16 13:15:41;;;;;;;19.20;8.45;;;28.90;75.80;;;;;;5030899;28;20508;-65
2023/09/16 13:18:45;;;;;;;;;;;28.80;76.40;;;;;;5031389;28;20065;-66
2023/09/16 13:21:49;;;;;;;12.63;8.50;;;28.80;77.50;;;;;;5030585;28;19909;-65
2023/09/16 13:24:53;;;;;;;10.35;7.50;;;28.70;77.50;;;;;;5030779;28;20484;-65
2023/09/16 13:28:20;;;;;;;10.45;7.53;;;28.70;77.60;;;;;;5030474;28;20048;-65
2023/09/16 13:31:25;;;;;;;16.27;9.40;;;28.70;77.70;;;;;;5029903;28;20045;-66
2023/09/16 13:34:46;;;;;;;15.20;9.40;;;28.80;78.80;;;;;;5029058;28;20311;-66
2023/09/16 13:37:50;;;;;;;24.48;12.55;;;28.80;79.70;;;;;;5030087;28;20056;-67
2023/09/16 13:40:55;;;;;;;18.38;10.95;;;28.80;80.60;;;;;;5029916;28;20386;-66
2023/09/16 13:43:59;;;;;;;15.05;10.32;;;28.70;80.40;;;;;;5030695;28;20049;-67
2023/09/16 13:47:03;;;;;;;19.98;12.13;;;28.80;80.30;;;;;;5030294;28;20044;-65
2023/09/16 13:50:07;;;;;;;19.23;11.02;;;28.80;80.10;;;;;;5030273;28;20040;-65
2023/09/16 13:53:15;;;;;;;15.55;11.18;;;28.70;80.10;;;;;;5029554;28;20172;-65
2023/09/16 13:56:21;;;;;;;27.83;13.07;;;28.80;80.30;;;;;;5032551;28;20520;-65
2023/09/16 13:59:25;;;;;;;20.48;11.38;;;28.70;80.60;;;;;;5034027;28;20049;-65
2023/09/16 14:02:29;;;;;;;23.27;11.48;;;28.70;80.90;;;;;;5034380;28;20508;-65
2023/09/16 14:05:35;;;;;;;16.15;10.73;;;28.70;80.50;;;;;;5034285;28;20053;-64
2023/09/16 14:08:39;;;;;;;10.40;9.20;;;28.70;80.50;;;;;;5034199;28;20036;-65
2023/09/16 14:11:43;;;;;;;15.55;10.25;;;28.70;80.40;;;;;;5034116;28;20405;-66
2023/09/16 14:14:48;;;;;;;13.32;9.65;;;28.80;79.50;;;;;;5034626;28;20326;-66
2023/09/16 14:17:52;;;;;;;16.90;10.88;;;28.80;79.10;;;;;;5033895;28;20056;-66
2023/09/16 14:20:56;;;;;;;18.08;10.18;;;28.80;79.10;;;;;;5033644;28;20496;-67
2023/09/16 14:24:03;;;;;;;13.27;9.23;;;28.80;79.00;;;;;;5031857;28;20052;-66
2023/09/16 14:27:07;;;;;;;16.38;9.77;;;28.80;79.10;;;;;;5032763;28;20134;-66
2023/09/16 14:30:12;;;;;;;14.55;8.68;;;28.80;79.20;;;;;;5032108;28;20064;-65
2023/09/16 14:33:16;;;;;;;11.80;7.95;;;28.80;78.80;;;;;;5031418;28;20068;-67
2023/09/16 14:36:20;;;;;;;21.85;8.65;;;28.80;78.70;;;;;;5032552;28;20504;-67
2023/09/16 14:39:25;;;;;;;16.27;8.40;;;28.80;78.60;;;;;;5032653;28;20084;-67
2023/09/16 14:42:29;;;;;;;13.40;7.97;;;28.80;78.00;;;;;;5032835;28;20044;-67
2023/09/16 14:45:33;;;;;;;16.45;8.15;;;28.70;77.60;;;;;;5033296;28;20052;-67
2023/09/16 14:48:37;;;;;;;22.02;9.27;;;28.70;77.90;;;;;;5033407;28;20040;-67
2023/09/16 14:51:46;;;;;;;13.00;7.80;;;28.70;77.90;;;;;;5033061;28;20052;-67
2023/09/16 14:54:51;;;;;;;13.98;8.98;;;28.60;77.70;;;;;;5033169;28;20070;-67
2023/09/16 14:57:54;;;;;;;17.05;9.02;;;28.50;77.60;;;;;;5032259;28;20048;-67
2023/09/16 15:01:00;;;;;;;13.60;8.13;;;28.50;77.60;;;;;;5033010;28;20508;-67
2023/09/16 15:04:04;;;;;;;13.75;7.47;;;28.50;77.80;;;;;;5033093;28;20048;-67
2023/09/16 15:07:08;;;;;;;13.63;7.80;;;28.40;77.70;;;;;;5032276;28;20393;-67
2023/09/16 15:10:12;;;;;;;15.48;8.35;;;28.40;77.60;;;;;;5032756;28;20044;-67
2023/09/16 15:13:16;;;;;;;12.98;8.27;;;28.40;77.50;;;;;;5033063;28;20044;-67
2023/09/16 15:16:24;;;;;;;18.08;8.40;;;28.40;77.50;;;;;;5032060;28;20496;-67
2023/09/16 15:19:28;;;;;;;12.52;7.90;;;28.40;77.60;;;;;;5032707;28;20056;-67
2023/09/16 15:22:32;;;;;;;17.20;8.93;;;28.40;77.60;;;;;;5033036;28;20060;-68
2023/09/16 15:25:36;;;;;;;19.17;8.80;;;28.40;77.60;;;;;;5032886;28;20052;-68
2023/09/16 15:28:41;;;;;;;17.63;8.55;;;28.30;77.80;;;;;;5031725;28;20394;-67
2023/09/16 15:31:45;;;;;;;12.32;7.93;;;28.30;78.10;;;;;;5032720;28;20052;-68
2023/09/16 15:34:49;;;;;;;13.55;7.80;;;28.30;78.00;;;;;;5032320;28;20068;-67
2023/09/16 15:37:53;;;;;;;15.88;7.20;;;28.20;77.80;;;;;;5032376;28;20086;-67
2023/09/16 15:41:01;;;;;;;18.23;7.03;;;28.20;77.30;;;;;;5032187;28;20040;-67
2023/09/16 15:44:06;;;;;;;9.85;6.10;;;28.20;76.80;;;;;;5031740;28;20045;-67
2023/09/16 15:47:10;;;;;;;11.25;6.20;;;28.10;76.00;;;;;;5032452;28;20052;-68